Greenbush, Wisconsin
Current Conditions -  °F | °C
As of 11:53 AM on Tuesday 21 Oct 2014 (Local Time) from KSBM Reporting Station
Overcast Overcast  
Wind Chill: 44°   Ceiling: 3000
Heat Index: 48°   Visibility: 10mi
Dew Point: 36°   Wind: 8mph
Humidity: 63%   Direction: 10°N
Pressure: 30.22"   Gusts: 18mph
Location:  43.78°N, 88.08°W
Report Text: KSBM 211653Z AUTO 01007G16KT 10SM OVC030 09/02 A3022 RMK AO2 SLP237 T00890022
Loading
Personal Weather Stations






























Interactive Weather Map
Tropical Storm Tracking
New forecast layout! Learn more

10-Day Weather Forecast

Advertisements
Track Severe Weather on mobile